createdAt,value
2022-11-04T00:01:34.329Z,8.73
2022-11-04T00:04:07.052Z,9.03
2022-11-04T00:06:39.867Z,9.15
2022-11-04T00:09:18.900Z,8.63
2022-11-04T00:12:09.464Z,9.73
2022-11-04T00:14:42.419Z,9.00
2022-11-04T00:17:22.508Z,8.68
2022-11-04T00:20:13.801Z,8.85
2022-11-04T00:23:07.493Z,8.58
2022-11-04T00:25:58.281Z,9.03
2022-11-04T00:28:46.013Z,9.00
2022-11-04T00:31:36.285Z,8.68
2022-11-04T00:34:09.082Z,8.63
2022-11-04T00:36:42.091Z,8.60
2022-11-04T00:39:14.806Z,7.97
2022-11-04T00:41:48.543Z,7.83
2022-11-04T00:44:21.021Z,8.15
2022-11-04T00:46:53.532Z,7.92
2022-11-04T00:49:26.295Z,8.73
2022-11-04T00:51:58.925Z,8.05
2022-11-04T00:54:31.469Z,7.97
2022-11-04T00:57:03.967Z,7.92
2022-11-04T00:59:36.581Z,7.90
2022-11-04T01:02:10.107Z,8.35
2022-11-04T01:04:42.578Z,8.55
2022-11-04T01:07:15.081Z,8.35
2022-11-04T01:09:47.504Z,7.97
2022-11-04T01:12:20.232Z,8.08
2022-11-04T01:14:53.378Z,8.20
2022-11-04T01:17:26.144Z,7.65
2022-11-04T01:19:58.743Z,7.40
2022-11-04T01:22:31.564Z,7.25
2022-11-04T01:25:04.660Z,7.60
2022-11-04T01:27:37.347Z,7.78
2022-11-04T01:30:11.394Z,7.90
2022-11-04T01:32:43.947Z,7.62
2022-11-04T01:35:16.298Z,8.28
2022-11-04T01:37:48.728Z,7.45
2022-11-04T01:40:21.144Z,7.83
2022-11-04T01:42:54.096Z,7.78
2022-11-04T01:45:26.697Z,7.33
2022-11-04T01:48:03.626Z,7.60
2022-11-04T01:50:36.021Z,7.58
2022-11-04T01:53:29.676Z,6.62
2022-11-04T01:56:08.339Z,7.70
2022-11-04T01:58:45.670Z,7.08
2022-11-04T02:01:18.905Z,7.75
2022-11-04T02:03:59.773Z,7.92
2022-11-04T02:06:32.469Z,7.47
2022-11-04T02:09:05.247Z,8.23
2022-11-04T02:11:55.371Z,7.42
2022-11-04T02:14:29.716Z,6.78
2022-11-04T02:17:21.796Z,7.53
2022-11-04T02:20:07.710Z,7.55
2022-11-04T02:23:19.771Z,7.42
2022-11-04T02:26:18.166Z,7.72
2022-11-04T02:29:45.344Z,7.42
2022-11-04T02:32:39.093Z,7.85
2022-11-04T02:35:19.784Z,7.70
2022-11-04T02:38:04.051Z,7.60
2022-11-04T02:41:03.398Z,7.65
2022-11-04T02:43:52.445Z,7.50
2022-11-04T02:46:54.587Z,7.05
2022-11-04T02:49:31.529Z,6.92
2022-11-04T02:52:10.873Z,7.67
2022-11-04T02:54:56.303Z,7.87
2022-11-04T02:57:31.703Z,8.68
2022-11-04T03:00:09.819Z,7.67
2022-11-04T03:03:06.260Z,7.45
2022-11-04T03:05:40.153Z,7.15
2022-11-04T03:08:29.613Z,7.15
2022-11-04T03:11:14.829Z,7.78
2022-11-04T03:14:08.250Z,8.15
2022-11-04T03:16:51.105Z,7.83
2022-11-04T03:19:46.527Z,7.65
2022-11-04T03:22:20.857Z,7.22
2022-11-04T03:24:53.997Z,7.08
2022-11-04T03:27:40.157Z,7.80
2022-11-04T03:33:15.602Z,6.87
2022-11-04T03:35:48.111Z,7.08
2022-11-04T03:38:22.874Z,6.90
2022-11-04T03:40:55.302Z,7.15
2022-11-04T03:43:28.839Z,7.80
2022-11-04T03:46:01.228Z,7.28
2022-11-04T03:48:33.852Z,7.85
2022-11-04T03:51:06.816Z,7.67
2022-11-04T03:53:39.214Z,7.67
2022-11-04T03:56:31.481Z,7.50
2022-11-04T03:59:32.207Z,8.73
2022-11-04T04:02:12.303Z,7.60
2022-11-04T04:05:03.064Z,7.87
2022-11-04T04:07:47.937Z,8.23
2022-11-04T04:10:42.452Z,8.15
2022-11-04T04:13:42.270Z,8.63
2022-11-04T04:16:40.534Z,7.70
2022-11-04T04:19:17.394Z,8.50
2022-11-04T04:22:01.375Z,8.28
2022-11-04T04:24:54.841Z,8.38
2022-11-04T04:27:33.042Z,8.95
2022-11-04T04:30:13.827Z,8.83
2022-11-04T04:33:00.811Z,7.72
2022-11-04T04:35:43.490Z,8.28
2022-11-04T04:38:45.377Z,8.98
2022-11-04T04:41:48.146Z,8.60
2022-11-04T04:44:44.024Z,8.75
2022-11-04T04:47:23.547Z,10.03
2022-11-04T04:50:01.063Z,9.15
2022-11-04T04:52:43.940Z,8.23
2022-11-04T04:55:16.710Z,9.15
2022-11-04T04:57:49.445Z,9.78
2022-11-04T05:00:22.257Z,10.18
2022-11-04T05:02:54.875Z,10.23
2022-11-04T05:05:27.377Z,10.58
2022-11-04T05:08:08.718Z,9.78
2022-11-04T05:10:41.661Z,9.98
2022-11-04T05:13:26.768Z,9.90
2022-11-04T05:16:04.268Z,10.68
2022-11-04T05:18:37.465Z,9.80
2022-11-04T05:21:13.232Z,9.93
2022-11-04T05:23:45.783Z,10.55
2022-11-04T05:26:18.913Z,11.15
2022-11-04T05:28:52.841Z,11.05
2022-11-04T05:31:25.357Z,9.95
2022-11-04T05:34:00.033Z,10.82
2022-11-04T05:36:34.307Z,9.70
2022-11-04T05:39:07.092Z,11.03
2022-11-04T05:41:39.565Z,10.10
2022-11-04T05:44:13.140Z,10.58
2022-11-04T05:46:45.800Z,10.80
2022-11-04T05:49:19.367Z,10.85
2022-11-04T05:51:52.184Z,11.15
2022-11-04T05:54:24.812Z,10.80
2022-11-04T05:56:57.343Z,11.85
2022-11-04T05:59:29.812Z,14.95
2022-11-04T06:02:02.692Z,11.63
2022-11-04T06:04:36.271Z,11.05
2022-11-04T06:07:09.564Z,12.10
2022-11-04T06:09:42.155Z,12.05
2022-11-04T06:12:16.979Z,12.20
2022-11-04T06:14:50.061Z,11.38
2022-11-04T06:17:23.834Z,12.03
2022-11-04T06:19:56.248Z,11.97
2022-11-04T06:22:30.267Z,12.37
2022-11-04T06:25:03.047Z,12.50
2022-11-04T06:27:36.266Z,12.35
2022-11-04T06:30:10.448Z,12.05
2022-11-04T06:32:43.701Z,11.97
2022-11-04T06:35:16.340Z,13.90
2022-11-04T06:37:48.839Z,11.28
2022-11-04T06:40:21.906Z,11.55
2022-11-04T06:42:54.613Z,11.18
2022-11-04T06:45:27.140Z,12.33
2022-11-04T06:47:59.642Z,11.73
2022-11-04T06:50:32.088Z,12.45
2022-11-04T06:53:04.880Z,11.30
2022-11-04T06:55:37.270Z,11.20
2022-11-04T06:58:10.243Z,11.33
2022-11-04T07:00:42.759Z,12.63
2022-11-04T07:03:15.837Z,11.55
2022-11-04T07:05:48.647Z,11.10
2022-11-04T07:08:21.154Z,11.48
2022-11-04T07:10:55.344Z,11.85
2022-11-04T07:13:27.821Z,11.33
2022-11-04T09:14:19.332Z,10.58
2022-11-04T09:16:51.765Z,9.80
2022-11-04T09:19:26.836Z,9.20
2022-11-04T09:21:59.327Z,10.88
2022-11-04T09:24:32.199Z,11.63
2022-11-04T09:27:06.532Z,11.70
2022-11-04T09:29:39.028Z,12.18
2022-11-04T09:32:11.473Z,11.73
2022-11-04T09:34:44.082Z,12.35
2022-11-04T09:37:17.305Z,12.18
2022-11-04T09:39:53.718Z,12.05
2022-11-04T09:43:10.171Z,12.65
2022-11-04T09:45:43.817Z,10.68
2022-11-04T09:48:42.783Z,14.40
2022-11-04T09:51:39.944Z,13.18
2022-11-04T09:54:03.506Z,10.72
2022-11-04T09:56:42.358Z,13.72
2022-11-04T09:59:18.825Z,11.88
2022-11-04T10:02:08.487Z,12.73
2022-11-04T10:05:10.020Z,12.18
2022-11-04T10:08:13.961Z,13.03
2022-11-04T13:36:24.685Z,11.48
2022-11-04T13:39:29.582Z,12.63
2022-11-04T13:42:40.446Z,12.40
2022-11-04T13:45:17.849Z,11.55
2022-11-04T13:47:56.677Z,12.10
2022-11-04T13:53:20.356Z,13.50
2022-11-04T13:55:53.193Z,12.85
2022-11-04T13:58:28.667Z,12.28
2022-11-04T14:01:25.953Z,12.70
2022-11-04T14:04:31.019Z,12.35
2022-11-04T14:07:05.793Z,11.88
2022-11-04T14:09:51.037Z,12.47
2022-11-04T14:12:33.407Z,11.93
2022-11-04T14:15:13.830Z,12.23
2022-11-04T14:17:51.809Z,11.97
2022-11-04T14:20:32.874Z,12.40
2022-11-04T14:23:05.884Z,12.18
2022-11-04T14:25:42.129Z,12.00
2022-11-04T14:28:27.647Z,12.00
2022-11-04T14:31:16.907Z,11.65
2022-11-04T14:33:58.055Z,12.00
2022-11-04T14:39:17.845Z,12.15
2022-11-04T14:42:01.951Z,11.88
2022-11-04T14:44:39.500Z,11.22
2022-11-04T14:47:37.530Z,11.55
2022-11-04T14:50:16.302Z,12.47
2022-11-04T14:52:56.072Z,12.25
2022-11-04T14:55:31.980Z,12.18
2022-11-04T14:58:24.467Z,11.53
2022-11-04T15:01:00.070Z,11.70
2022-11-04T15:04:10.872Z,11.95
2022-11-04T15:06:13.638Z,11.65
2022-11-04T15:08:47.303Z,11.08
2022-11-04T15:11:40.893Z,11.10
2022-11-04T15:14:27.155Z,10.98
2022-11-04T15:17:00.457Z,11.48
2022-11-04T15:19:35.075Z,12.05
2022-11-04T15:22:08.187Z,11.38
2022-11-04T15:24:40.501Z,11.65
2022-11-04T15:27:17.572Z,10.72
2022-11-04T15:30:02.833Z,12.37
2022-11-04T15:32:35.750Z,11.68
2022-11-04T15:35:09.882Z,11.73
2022-11-04T15:37:43.212Z,11.85
2022-11-04T15:40:16.146Z,11.68
2022-11-04T15:42:49.939Z,12.30
2022-11-04T15:45:32.805Z,11.83
2022-11-04T15:48:40.775Z,11.80
2022-11-04T15:51:23.199Z,11.38
2022-11-04T15:54:07.548Z,12.07
2022-11-04T15:56:54.735Z,12.03
2022-11-04T15:59:33.719Z,11.93
2022-11-04T16:02:08.322Z,12.15
2022-11-04T16:04:45.337Z,11.93
2022-11-04T16:07:23.134Z,11.75
2022-11-04T16:09:56.184Z,11.38
2022-11-04T16:12:44.588Z,11.00
2022-11-04T16:15:51.334Z,10.78
2022-11-04T16:18:46.455Z,11.25
2022-11-04T16:21:34.710Z,11.35
2022-11-04T16:24:26.936Z,11.80
2022-11-04T16:26:59.773Z,10.80
2022-11-04T16:29:34.772Z,10.70
2022-11-04T16:32:22.462Z,10.72
2022-11-04T16:35:02.953Z,11.78
2022-11-04T16:37:53.141Z,10.72
2022-11-04T16:40:26.060Z,12.05
2022-11-04T16:42:58.490Z,12.35
2022-11-04T16:45:38.718Z,11.60
2022-11-04T16:48:14.374Z,11.80
2022-11-04T16:50:47.130Z,11.70
2022-11-04T16:53:19.517Z,12.50
2022-11-04T16:55:52.503Z,11.25
2022-11-04T16:58:24.927Z,11.50
2022-11-04T17:01:02.529Z,11.53
2022-11-04T17:03:31.697Z,12.10
2022-11-04T17:06:04.544Z,11.40
2022-11-04T17:08:37.015Z,11.20
2022-11-04T17:11:10.611Z,13.72
2022-11-04T17:13:43.071Z,12.13
2022-11-04T17:16:15.490Z,12.00
2022-11-04T17:18:48.290Z,11.95
2022-11-04T17:21:21.161Z,12.45
2022-11-04T17:23:55.233Z,13.50
2022-11-04T17:26:28.467Z,12.78
2022-11-04T17:29:00.977Z,13.60
2022-11-04T17:31:33.785Z,13.10
2022-11-04T17:34:06.318Z,12.82
2022-11-04T17:36:39.329Z,14.40
2022-11-04T17:39:11.726Z,14.70
2022-11-04T17:42:02.398Z,13.68
2022-11-04T17:44:34.957Z,14.47
2022-11-04T17:47:07.741Z,14.05
2022-11-04T17:49:41.673Z,13.62
2022-11-04T17:52:14.330Z,12.98
2022-11-04T17:54:47.374Z,13.38
2022-11-04T17:57:19.752Z,12.90
2022-11-04T17:59:52.467Z,13.45
2022-11-04T18:02:24.974Z,14.15
2022-11-04T18:04:57.717Z,12.15
2022-11-04T18:07:31.168Z,14.00
2022-11-04T18:10:03.909Z,12.93
2022-11-04T18:12:39.439Z,13.00
2022-11-04T18:15:16.421Z,13.90
2022-11-04T18:17:50.944Z,14.23
2022-11-04T18:20:23.369Z,14.15
2022-11-04T18:22:56.596Z,15.93
2022-11-04T18:25:30.555Z,16.60
2022-11-04T18:28:03.016Z,16.77
2022-11-04T18:30:35.405Z,15.45
2022-11-04T18:33:08.124Z,15.55
2022-11-04T18:35:40.704Z,16.70
2022-11-04T18:38:13.244Z,15.50
2022-11-04T18:40:45.612Z,15.60
2022-11-04T18:43:18.177Z,14.30
2022-11-04T18:45:50.974Z,15.30
2022-11-04T18:48:23.580Z,14.73
2022-11-04T18:50:55.959Z,15.53
2022-11-04T18:53:28.720Z,15.43
2022-11-04T18:56:08.050Z,13.10
2022-11-04T18:58:42.105Z,13.90
2022-11-04T19:01:24.438Z,12.93
2022-11-04T19:03:57.216Z,13.18
2022-11-04T21:03:00.252Z,16.45
2022-11-04T21:05:32.863Z,17.07
2022-11-04T21:08:05.881Z,17.12
2022-11-04T21:10:38.575Z,16.50
2022-11-04T21:13:12.072Z,15.85
2022-11-04T21:15:44.777Z,15.85
2022-11-04T21:18:17.666Z,15.43
2022-11-04T21:20:52.142Z,15.93
2022-11-04T21:23:25.096Z,15.63
2022-11-04T21:26:01.166Z,15.28
2022-11-04T21:28:33.844Z,16.17
2022-11-04T21:31:09.113Z,16.00
2022-11-04T21:33:41.619Z,15.63
2022-11-04T21:36:14.589Z,15.90
2022-11-04T21:38:47.473Z,16.07
2022-11-04T21:41:24.503Z,23.55
2022-11-04T21:44:02.031Z,18.32
2022-11-04T21:46:35.720Z,17.23
2022-11-04T21:49:08.479Z,15.55
2022-11-04T21:51:41.081Z,22.30
2022-11-04T21:54:13.517Z,23.38
2022-11-04T21:56:47.682Z,22.93
2022-11-04T21:59:21.049Z,16.75
2022-11-04T22:01:53.706Z,15.58
2022-11-04T22:04:27.384Z,14.87
2022-11-04T22:07:01.119Z,15.30
2022-11-04T22:09:33.955Z,14.67
2022-11-04T22:12:07.413Z,15.13
2022-11-04T22:14:40.444Z,15.83
2022-11-04T22:17:13.798Z,15.00
2022-11-04T22:19:46.949Z,15.05
2022-11-04T22:22:19.653Z,13.15
2022-11-04T22:24:53.956Z,14.23
2022-11-04T22:27:26.876Z,14.85
2022-11-04T22:29:59.556Z,15.55
2022-11-04T22:32:32.423Z,14.83
2022-11-04T22:35:04.924Z,14.55
2022-11-04T22:37:37.601Z,18.32
2022-11-04T22:40:12.207Z,15.75
2022-11-04T22:42:44.694Z,17.02
2022-11-04T22:45:17.133Z,17.07
2022-11-04T22:47:50.393Z,16.70
2022-11-04T22:50:23.132Z,17.57
2022-11-04T22:52:55.723Z,16.00
2022-11-04T22:55:28.123Z,17.12
2022-11-04T22:58:00.975Z,17.75
2022-11-04T23:00:33.681Z,19.57
2022-11-04T23:03:06.567Z,19.60
2022-11-04T23:05:40.842Z,21.10
2022-11-04T23:08:13.454Z,20.60
2022-11-04T23:11:05.365Z,22.05
2022-11-04T23:13:42.249Z,21.50
2022-11-04T23:16:41.782Z,22.55
2022-11-04T23:19:14.328Z,21.85
2022-11-04T23:22:04.737Z,22.70
2022-11-04T23:24:54.767Z,23.02
2022-11-04T23:27:45.309Z,23.07
2022-11-04T23:30:25.396Z,23.15
2022-11-04T23:33:07.913Z,22.15
2022-11-04T23:36:01.144Z,22.13
2022-11-04T23:38:35.476Z,21.97
2022-11-04T23:41:26.898Z,22.32
2022-11-04T23:43:59.254Z,23.47
2022-11-04T23:46:49.243Z,22.55
2022-11-04T23:49:39.717Z,24.45
2022-11-04T23:52:30.066Z,21.97
2022-11-04T23:55:20.839Z,23.90
2022-11-04T23:58:11.004Z,24.40
